Time;durP1;ratioP1;P1;durP2;ratioP2;P2;SDS_P1;SDS_P2;PMS_P1;PMS_P2;Temp;Humidity;BMP_temperature;BMP_pressure;BME280_temperature;BME280_humidity;BME280_pressure;Samples;Min_cycle;Max_cycle;Signal;HPM_P1;HPM_P2
2023/07/30 00:00:18;;;;;;;2.70;2.47;;;17.30;99.90;;;;;;5053237;28;20299;-79
2023/07/30 00:02:46;;;;;;;3.03;2.27;;;17.30;99.90;;;;;;5053627;28;20211;-78
2023/07/30 00:05:15;;;;;;;3.50;2.83;;;17.30;99.90;;;;;;5052987;28;20662;-78
2023/07/30 00:07:43;;;;;;;3.20;2.57;;;17.30;99.90;;;;;;5040723;28;20720;-77
2023/07/30 00:10:11;;;;;;;5.30;2.70;;;17.20;99.90;;;;;;5055156;28;20210;-77
2023/07/30 00:12:40;;;;;;;3.30;2.60;;;17.20;99.90;;;;;;5053298;28;20239;-77
2023/07/30 00:15:10;;;;;;;3.17;2.70;;;17.20;99.90;;;;;;5048990;28;20618;-79
2023/07/30 00:17:38;;;;;;;3.13;2.83;;;17.20;99.90;;;;;;5033474;28;20667;-76
2023/07/30 00:20:08;;;;;;;5.07;2.80;;;17.10;99.90;;;;;;5033565;28;20247;-77
2023/07/30 00:22:36;;;;;;;4.30;2.53;;;17.20;99.90;;;;;;5033000;28;20225;-76
2023/07/30 00:25:05;;;;;;;5.00;2.90;;;17.10;99.90;;;;;;5036975;28;20209;-79
2023/07/30 00:27:33;;;;;;;3.77;3.00;;;17.10;99.90;;;;;;5032766;28;20558;-78
2023/07/30 00:30:01;;;;;;;3.53;2.53;;;17.10;99.90;;;;;;5033242;28;20274;-79
2023/07/30 00:32:31;;;;;;;3.77;2.70;;;17.00;99.90;;;;;;5032905;28;20216;-75
2023/07/30 00:34:59;;;;;;;2.70;2.50;;;17.00;99.90;;;;;;5032869;28;20299;-76
2023/07/30 00:37:27;;;;;;;3.23;2.27;;;17.00;99.90;;;;;;5032719;28;20228;-78
2023/07/30 00:39:55;;;;;;;4.70;2.80;;;17.00;99.90;;;;;;5032887;28;20253;-79
2023/07/30 00:42:23;;;;;;;3.33;2.60;;;16.90;99.90;;;;;;5032747;28;20240;-79
2023/07/30 00:44:51;;;;;;;6.17;2.63;;;16.90;99.90;;;;;;5032638;28;20235;-78
2023/07/30 00:47:20;;;;;;;2.97;2.53;;;16.90;99.90;;;;;;5032762;28;20216;-79
2023/07/30 00:49:50;;;;;;;4.77;2.80;;;16.90;99.90;;;;;;5032892;28;20266;-76
2023/07/30 00:52:21;;;;;;;2.33;2.10;;;16.90;99.90;;;;;;5032704;28;20254;-79
2023/07/30 00:54:49;;;;;;;3.50;2.53;;;16.90;99.90;;;;;;5032884;28;20193;-79
2023/07/30 00:57:19;;;;;;;3.63;2.63;;;17.00;99.90;;;;;;5031998;28;20235;-79
2023/07/30 00:59:49;;;;;;;2.97;2.50;;;17.00;99.90;;;;;;5032720;28;20266;-78
2023/07/30 01:02:17;;;;;;;4.17;2.37;;;17.00;99.90;;;;;;5049956;28;20658;-78
2023/07/30 01:04:46;;;;;;;3.07;2.70;;;17.00;99.90;;;;;;5052553;28;20208;-79
2023/07/30 01:07:15;;;;;;;3.00;2.30;;;17.00;99.90;;;;;;5053084;28;20223;-75
2023/07/30 01:09:44;;;;;;;3.10;2.30;;;17.00;99.90;;;;;;5040092;28;20213;-77
2023/07/30 01:12:12;;;;;;;3.47;2.10;;;17.00;99.90;;;;;;5032558;28;20310;-78
2023/07/30 01:14:41;;;;;;;2.33;1.90;;;17.10;99.90;;;;;;5032441;28;20208;-76
2023/07/30 01:17:09;;;;;;;2.17;1.97;;;17.10;99.90;;;;;;5032267;28;20235;-78
2023/07/30 01:19:37;;;;;;;3.47;2.30;;;17.10;99.90;;;;;;5031948;28;20663;-78
2023/07/30 01:22:06;;;;;;;2.30;2.00;;;17.20;99.90;;;;;;5032991;28;20254;-78
2023/07/30 01:24:34;;;;;;;2.20;2.00;;;17.20;99.90;;;;;;5047628;28;20265;-79
2023/07/30 01:27:07;;;;;;;2.57;1.90;;;17.20;99.90;;;;;;5047371;28;20228;-80
2023/07/30 01:29:42;;;;;;;3.40;2.00;;;17.20;99.90;;;;;;5047159;28;20192;-80
2023/07/30 01:32:14;;;;;;;3.97;1.90;;;17.30;99.90;;;;;;5051852;28;20207;-76
2023/07/30 01:34:45;;;;;;;4.37;2.10;;;17.30;99.90;;;;;;5050184;28;20720;-79
2023/07/30 01:37:16;;;;;;;2.10;1.90;;;17.30;99.90;;;;;;5051838;28;20224;-73
2023/07/30 01:39:46;;;;;;;1.90;1.80;;;17.30;99.90;;;;;;5051720;28;20571;-78
2023/07/30 01:42:14;;;;;;;3.23;2.03;;;17.30;99.90;;;;;;5051588;28;20210;-77
2023/07/30 01:44:42;;;;;;;2.93;2.00;;;17.30;99.90;;;;;;5052846;28;20573;-76
2023/07/30 01:47:10;;;;;;;2.30;2.10;;;17.30;99.90;;;;;;5031965;28;20205;-77
2023/07/30 01:49:38;;;;;;;1.90;1.70;;;17.20;99.90;;;;;;5040140;28;20216;-78
2023/07/30 01:52:07;;;;;;;2.30;1.93;;;17.20;99.90;;;;;;5051360;28;20208;-76
2023/07/30 01:54:36;;;;;;;2.57;1.97;;;17.20;99.90;;;;;;5050784;28;20242;-78
2023/07/30 01:57:05;;;;;;;3.23;2.23;;;17.20;99.90;;;;;;5052263;28;20219;-74
2023/07/30 01:59:33;;;;;;;2.63;2.00;;;17.10;99.90;;;;;;5064138;28;20682;-77
2023/07/30 02:02:01;;;;;;;2.20;2.00;;;17.10;99.90;;;;;;5050304;28;20261;-76
2023/07/30 02:04:30;;;;;;;3.83;1.90;;;17.10;99.90;;;;;;5031763;28;20251;-80
2023/07/30 02:06:58;;;;;;;2.73;2.00;;;17.10;99.90;;;;;;5031767;28;20239;-79
2023/07/30 02:09:26;;;;;;;2.37;1.97;;;17.10;99.90;;;;;;5035908;28;20247;-80
2023/07/30 02:11:55;;;;;;;2.57;2.10;;;17.10;99.90;;;;;;5035223;28;20213;-79
2023/07/30 02:14:23;;;;;;;2.33;2.00;;;17.00;99.90;;;;;;5035887;28;20220;-79
2023/07/30 02:16:51;;;;;;;3.50;2.23;;;17.00;99.90;;;;;;5035448;28;20212;-78
2023/07/30 02:19:20;;;;;;;2.27;1.90;;;17.00;99.90;;;;;;5035225;28;20209;-79
2023/07/30 02:21:48;;;;;;;2.27;1.80;;;16.90;99.90;;;;;;5038975;28;20655;-78
2023/07/30 02:24:16;;;;;;;2.73;1.90;;;17.00;99.90;;;;;;5055637;28;20235;-78
2023/07/30 02:26:44;;;;;;;2.43;1.97;;;17.00;99.90;;;;;;5055359;28;20303;-80
2023/07/30 02:29:13;;;;;;;3.07;2.03;;;17.00;99.90;;;;;;5048653;28;20212;-79
2023/07/30 02:31:41;;;;;;;2.60;1.93;;;17.00;99.90;;;;;;5035507;28;20209;-79
2023/07/30 02:34:09;;;;;;;3.83;2.20;;;17.00;99.90;;;;;;5034768;28;20299;-79
2023/07/30 02:36:37;;;;;;;4.97;2.00;;;17.10;99.90;;;;;;5035409;28;20271;-79
2023/07/30 02:39:05;;;;;;;2.30;2.07;;;17.00;99.90;;;;;;5035001;28;20237;-77
2023/07/30 02:41:33;;;;;;;3.53;2.23;;;17.10;99.90;;;;;;5035361;28;20286;-78
2023/07/30 02:44:02;;;;;;;2.43;2.10;;;17.00;99.90;;;;;;5034969;28;20228;-78
2023/07/30 02:46:31;;;;;;;3.40;2.27;;;17.00;99.90;;;;;;5034869;28;20243;-78
2023/07/30 02:48:59;;;;;;;3.87;2.07;;;16.90;99.90;;;;;;5034869;28;20201;-74
2023/07/30 02:51:27;;;;;;;3.00;2.70;;;16.90;99.90;;;;;;5034479;28;20205;-74
2023/07/30 02:53:59;;;;;;;3.73;2.57;;;16.80;99.90;;;;;;5037276;28;20236;-76
2023/07/30 02:56:27;;;;;;;3.20;2.67;;;16.80;99.90;;;;;;5054657;28;20263;-75
2023/07/30 02:58:56;;;;;;;3.10;2.60;;;16.80;99.90;;;;;;5054754;28;20228;-75
2023/07/30 03:01:24;;;;;;;6.33;2.97;;;16.80;99.90;;;;;;5052334;28;20243;-78
2023/07/30 03:03:53;;;;;;;4.60;2.87;;;16.80;99.90;;;;;;5036198;28;20208;-80
2023/07/30 03:06:21;;;;;;;3.93;2.70;;;16.70;99.90;;;;;;5054520;28;20200;-75
2023/07/30 03:08:49;;;;;;;3.73;2.67;;;16.70;99.90;;;;;;5054625;28;20271;-76
2023/07/30 03:11:17;;;;;;;4.83;2.90;;;16.60;99.90;;;;;;5041574;28;20220;-76
2023/07/30 03:13:45;;;;;;;4.07;2.60;;;16.60;99.90;;;;;;5034395;28;20204;-77
2023/07/30 03:16:13;;;;;;;4.70;3.10;;;16.60;99.90;;;;;;5034666;28;20214;-77
2023/07/30 03:18:42;;;;;;;4.63;2.60;;;16.60;99.90;;;;;;5033973;28;20225;-77
2023/07/30 03:21:11;;;;;;;3.73;2.47;;;16.60;99.90;;;;;;5043883;28;20259;-77
2023/07/30 03:23:40;;;;;;;3.13;2.50;;;16.50;99.90;;;;;;5053822;28;20295;-78
2023/07/30 03:26:08;;;;;;;3.73;2.80;;;16.50;99.90;;;;;;5035416;28;20212;-76
2023/07/30 03:28:37;;;;;;;4.37;2.87;;;16.40;99.90;;;;;;5034117;28;20292;-76
2023/07/30 03:31:07;;;;;;;3.00;2.40;;;16.40;99.90;;;;;;5033307;28;20247;-77
2023/07/30 03:33:36;;;;;;;3.27;2.30;;;16.30;99.90;;;;;;5033601;28;20224;-76
2023/07/30 03:36:04;;;;;;;4.03;2.80;;;16.30;99.90;;;;;;5034052;28;20282;-78
2023/07/30 03:38:34;;;;;;;5.90;2.90;;;16.30;99.90;;;;;;5050504;28;20232;-78
2023/07/30 03:41:02;;;;;;;6.00;3.17;;;16.30;99.90;;;;;;5053578;28;20235;-78
2023/07/30 03:43:30;;;;;;;3.53;2.83;;;16.30;99.90;;;;;;5053624;28;20223;-78
2023/07/30 03:45:58;;;;;;;3.43;2.70;;;16.30;99.90;;;;;;5048889;28;20278;-76
2023/07/30 03:48:26;;;;;;;3.30;3.00;;;16.30;99.90;;;;;;5054161;28;20292;-77
2023/07/30 03:50:54;;;;;;;4.70;3.07;;;16.20;99.90;;;;;;5054270;28;20212;-77
2023/07/30 03:53:23;;;;;;;6.17;3.20;;;16.20;99.90;;;;;;5053677;28;20262;-77
2023/07/30 03:55:52;;;;;;;5.73;3.53;;;16.20;99.90;;;;;;5052173;28;20216;-79
2023/07/30 03:58:20;;;;;;;4.70;3.40;;;16.10;99.90;;;;;;5053637;28;20258;-79
2023/07/30 04:00:48;;;;;;;4.50;3.10;;;16.10;99.90;;;;;;5053407;28;20216;-77
2023/07/30 04:03:16;;;;;;;5.80;3.43;;;16.00;99.90;;;;;;5046003;28;20209;-78
2023/07/30 04:05:45;;;;;;;4.80;3.30;;;16.00;99.90;;;;;;5049990;28;20209;-78
2023/07/30 04:08:13;;;;;;;4.87;3.43;;;16.00;99.90;;;;;;5052606;28;20216;-79
2023/07/30 04:10:41;;;;;;;3.50;3.20;;;16.00;99.90;;;;;;5046560;28;20652;-78
2023/07/30 04:13:10;;;;;;;5.67;3.33;;;15.90;99.90;;;;;;5032982;28;20350;-80
2023/07/30 04:15:38;;;;;;;4.97;3.40;;;15.90;99.90;;;;;;5052441;28;20298;-79
2023/07/30 04:18:06;;;;;;;5.03;3.27;;;15.90;99.90;;;;;;5049723;28;20228;-79
2023/07/30 04:20:34;;;;;;;5.33;3.77;;;15.90;99.90;;;;;;5052413;28;20651;-80
2023/07/30 04:23:02;;;;;;;4.17;3.50;;;15.90;99.90;;;;;;5052181;28;20261;-80
2023/07/30 04:25:30;;;;;;;4.30;3.50;;;15.90;99.90;;;;;;5052904;28;20244;-80
2023/07/30 04:27:58;;;;;;;4.63;3.37;;;15.90;99.90;;;;;;5038259;28;20208;-80
2023/07/30 04:30:28;;;;;;;8.90;3.63;;;16.00;99.90;;;;;;5032546;28;20241;-78
2023/07/30 04:32:56;;;;;;;4.43;3.30;;;16.00;99.90;;;;;;5043518;28;20227;-77
2023/07/30 04:35:24;;;;;;;4.90;3.60;;;16.00;99.90;;;;;;5052762;28;20204;-79
2023/07/30 04:37:52;;;;;;;5.60;3.40;;;15.90;99.90;;;;;;5051722;28;20235;-80
2023/07/30 04:40:20;;;;;;;4.33;3.70;;;16.00;99.90;;;;;;5052539;28;20240;-79
2023/07/30 04:42:48;;;;;;;4.93;3.83;;;16.00;99.90;;;;;;5052854;28;20240;-81
2023/07/30 04:45:16;;;;;;;5.13;3.63;;;16.00;99.90;;;;;;5049109;28;20215;-79
2023/07/30 04:47:46;;;;;;;4.63;3.50;;;16.00;99.90;;;;;;5050305;28;20212;-78
2023/07/30 04:50:14;;;;;;;5.17;3.80;;;16.00;99.90;;;;;;5052590;28;20214;-79
2023/07/30 04:52:42;;;;;;;4.83;3.40;;;16.00;99.90;;;;;;5052345;28;20251;-79
2023/07/30 04:55:10;;;;;;;6.60;3.97;;;16.00;99.90;;;;;;5044150;28;20259;-79
2023/07/30 04:57:38;;;;;;;4.00;3.50;;;16.10;99.90;;;;;;5032333;28;20267;-79
2023/07/30 05:00:08;;;;;;;4.40;4.00;;;16.20;99.90;;;;;;5032193;28;20768;-78
2023/07/30 05:02:36;;;;;;;5.03;3.83;;;16.20;99.90;;;;;;5034796;28;20216;-78
2023/07/30 05:05:06;;;;;;;4.57;3.80;;;16.30;99.90;;;;;;5052146;28;20208;-78
2023/07/30 05:07:35;;;;;;;5.00;3.40;;;16.50;99.90;;;;;;5052404;28;20219;-78
2023/07/30 05:10:06;;;;;;;4.17;3.70;;;16.60;99.90;;;;;;5048768;28;20200;-78
2023/07/30 05:12:34;;;;;;;4.73;3.60;;;16.70;99.90;;;;;;5032127;28;20216;-79
2023/07/30 05:15:02;;;;;;;3.37;3.07;;;16.80;99.90;;;;;;5032213;28;20217;-79
2023/07/30 05:17:31;;;;;;;5.37;3.57;;;16.90;99.90;;;;;;5044165;28;20238;-78
2023/07/30 05:19:59;;;;;;;5.37;3.20;;;16.90;99.90;;;;;;5043546;28;20235;-79
2023/07/30 05:22:28;;;;;;;4.20;3.20;;;17.00;99.90;;;;;;5051579;28;20296;-80
2023/07/30 05:24:56;;;;;;;3.30;3.00;;;17.10;99.90;;;;;;5052045;28;20235;-78
2023/07/30 05:27:24;;;;;;;6.17;2.97;;;17.20;99.90;;;;;;5050913;28;20212;-78
2023/07/30 05:29:53;;;;;;;7.40;3.07;;;17.30;99.90;;;;;;5049346;28;20201;-78
2023/07/30 05:32:21;;;;;;;3.33;3.00;;;17.40;99.90;;;;;;5051695;28;20212;-79
2023/07/30 05:34:49;;;;;;;4.60;3.20;;;17.50;99.90;;;;;;5052078;28;20277;-76
2023/07/30 05:37:17;;;;;;;4.13;2.93;;;17.50;99.90;;;;;;5050590;28;20212;-78
2023/07/30 05:39:46;;;;;;;3.27;2.93;;;17.60;99.90;;;;;;5051682;28;20232;-77
2023/07/30 05:42:14;;;;;;;4.43;3.00;;;17.70;99.90;;;;;;5051251;28;20613;-74
2023/07/30 05:44:42;;;;;;;4.47;2.87;;;17.80;99.90;;;;;;5043794;28;20674;-77
2023/07/30 05:47:10;;;;;;;4.27;2.90;;;17.80;99.90;;;;;;5035083;28;20204;-75
2023/07/30 05:49:38;;;;;;;3.13;2.80;;;17.80;99.90;;;;;;5044306;28;20228;-77
2023/07/30 05:52:07;;;;;;;2.60;2.40;;;17.80;99.90;;;;;;5049461;28;20663;-78
2023/07/30 05:54:35;;;;;;;3.03;2.73;;;17.80;99.90;;;;;;5047180;28;20737;-76
2023/07/30 05:57:05;;;;;;;3.23;2.60;;;17.90;99.90;;;;;;5051295;28;20212;-76
2023/07/30 05:59:33;;;;;;;4.20;2.50;;;18.10;99.90;;;;;;5049604;28;20323;-75
2023/07/30 06:02:04;;;;;;;2.60;2.40;;;18.30;99.90;;;;;;5046692;28;20220;-76
2023/07/30 06:04:32;;;;;;;2.63;2.37;;;18.90;99.90;;;;;;5051546;28;20567;-76
2023/07/30 06:07:01;;;;;;;3.43;2.30;;;19.40;99.90;;;;;;5051272;28;20298;-76
2023/07/30 06:09:29;;;;;;;3.03;2.47;;;19.90;99.90;;;;;;5051492;28;20204;-75
2023/07/30 06:11:58;;;;;;;3.27;1.90;;;20.30;99.90;;;;;;5033076;28;20213;-78
2023/07/30 06:14:28;;;;;;;2.63;2.17;;;20.80;99.90;;;;;;5032258;28;20615;-76
2023/07/30 06:16:56;;;;;;;2.43;2.10;;;21.40;99.90;;;;;;5049191;28;20666;-73
2023/07/30 06:19:24;;;;;;;2.67;1.83;;;21.60;99.90;;;;;;5051452;28;20228;-75
2023/07/30 06:21:52;;;;;;;3.30;1.90;;;21.70;99.90;;;;;;5051135;28;20208;-72
2023/07/30 06:24:20;;;;;;;3.33;1.87;;;21.90;99.90;;;;;;5031645;28;20221;-72
2023/07/30 06:26:48;;;;;;;1.77;1.67;;;22.00;99.90;;;;;;5031243;28;20217;-75
2023/07/30 06:29:16;;;;;;;2.87;2.00;;;22.50;99.90;;;;;;5031033;28;20658;-76
2023/07/30 06:31:46;;;;;;;3.90;2.00;;;22.60;99.90;;;;;;5030987;28;20213;-75
2023/07/30 06:34:14;;;;;;;2.30;2.03;;;22.50;99.90;;;;;;5030909;28;20750;-76
2023/07/30 06:36:42;;;;;;;1.90;1.80;;;22.40;99.90;;;;;;5031436;28;20212;-75
2023/07/30 06:39:10;;;;;;;4.40;1.87;;;21.80;99.90;;;;;;5034361;28;20243;-76
2023/07/30 06:41:38;;;;;;;3.20;2.10;;;21.40;99.90;;;;;;5046275;28;20233;-76
2023/07/30 06:44:08;;;;;;;3.60;2.00;;;21.20;99.90;;;;;;5030487;28;20216;-78
2023/07/30 06:46:36;;;;;;;2.53;2.17;;;20.80;99.90;;;;;;5031247;28;20248;-76
2023/07/30 06:49:06;;;;;;;3.70;2.03;;;20.80;99.90;;;;;;5035579;28;20200;-74
2023/07/30 06:51:34;;;;;;;2.93;2.00;;;21.20;99.90;;;;;;5047550;28;20273;-75
2023/07/30 06:54:02;;;;;;;3.33;1.80;;;21.80;99.90;;;;;;5050174;28;20725;-75
2023/07/30 06:56:30;;;;;;;1.97;1.83;;;22.90;99.90;;;;;;5054182;28;20315;-72
2023/07/30 06:58:58;;;;;;;2.63;1.90;;;23.90;99.90;;;;;;5043773;28;20220;-73
2023/07/30 07:01:26;;;;;;;2.27;1.87;;;24.60;99.90;;;;;;5037695;28;20274;-76
2023/07/30 07:03:54;;;;;;;1.70;1.60;;;25.30;99.90;;;;;;5054351;28;20236;-76
2023/07/30 07:06:24;;;;;;;4.10;1.90;;;25.90;99.90;;;;;;5049987;28;20369;-75
2023/07/30 07:08:52;;;;;;;5.40;1.75;;;26.60;99.90;;;;;;5033561;28;20243;-76
2023/07/30 07:11:20;;;;;;;1.70;1.60;;;27.00;99.90;;;;;;5033263;28;20226;-77
2023/07/30 07:13:49;;;;;;;3.15;1.70;;;27.10;99.90;;;;;;5033133;28;20694;-76
2023/07/30 07:16:17;;;;;;;1.58;1.48;;;26.80;99.90;;;;;;5032722;28;20884;-78
2023/07/30 07:18:45;;;;;;;2.80;1.80;;;27.40;99.90;;;;;;5033089;28;20212;-76
2023/07/30 07:21:13;;;;;;;2.00;1.90;;;27.60;98.90;;;;;;5033930;28;20636;-76
2023/07/30 07:23:42;;;;;;;1.75;1.63;;;28.00;98.40;;;;;;5033814;28;20208;-78
2023/07/30 07:26:10;;;;;;;1.90;1.77;;;28.50;95.90;;;;;;5034150;28;20205;-76
2023/07/30 07:28:38;;;;;;;1.70;1.60;;;29.10;94.50;;;;;;5034578;28;20270;-77
2023/07/30 07:31:07;;;;;;;1.80;1.63;;;29.10;93.50;;;;;;5034216;28;20255;-73
2023/07/30 07:33:35;;;;;;;2.97;1.70;;;29.10;92.00;;;;;;5033554;28;20216;-76
2023/07/30 07:36:07;;;;;;;2.20;1.48;;;28.80;92.00;;;;;;5034318;28;20267;-74
2023/07/30 07:38:36;;;;;;;4.82;1.83;;;29.60;92.20;;;;;;5033820;28;20715;-77
2023/07/30 07:41:05;;;;;;;1.92;1.50;;;28.90;93.20;;;;;;5034309;28;20228;-74
2023/07/30 07:43:33;;;;;;;3.53;1.65;;;28.80;91.70;;;;;;5043653;28;20620;-75
2023/07/30 07:46:01;;;;;;;2.05;1.67;;;28.80;92.40;;;;;;5053679;28;20208;-74
2023/07/30 07:48:30;;;;;;;1.80;1.58;;;28.80;92.70;;;;;;5053951;28;20215;-74
2023/07/30 07:50:58;;;;;;;1.92;1.77;;;29.40;90.40;;;;;;5047499;28;20209;-75
2023/07/30 07:53:26;;;;;;;1.65;1.42;;;29.50;90.10;;;;;;5033705;28;20244;-74
2023/07/30 07:55:54;;;;;;;1.92;1.35;;;29.20;90.30;;;;;;5033665;28;20244;-74
2023/07/30 07:58:23;;;;;;;2.42;1.60;;;27.80;91.70;;;;;;5044745;28;20204;-74
2023/07/30 08:00:55;;;;;;;1.55;1.45;;;27.40;93.30;;;;;;5051705;28;20224;-75
2023/07/30 08:03:23;;;;;;;3.55;1.60;;;26.90;94.10;;;;;;5053315;28;20250;-77
2023/07/30 08:05:51;;;;;;;3.85;1.77;;;26.40;97.60;;;;;;5053327;28;20230;-77
2023/07/30 08:08:19;;;;;;;1.83;1.60;;;26.00;98.40;;;;;;5035091;28;20698;-74
2023/07/30 08:10:47;;;;;;;2.75;1.70;;;25.80;99.90;;;;;;5052956;28;20238;-77
2023/07/30 08:13:15;;;;;;;1.77;1.42;;;25.80;99.90;;;;;;5053161;28;20204;-78
2023/07/30 08:15:45;;;;;;;1.70;1.60;;;25.30;99.90;;;;;;5046582;28;20208;-76
2023/07/30 08:18:13;;;;;;;1.60;1.50;;;25.20;99.90;;;;;;5033683;28;20216;-78
2023/07/30 08:20:41;;;;;;;1.73;1.60;;;24.50;99.90;;;;;;5033292;28;20260;-76
2023/07/30 08:23:09;;;;;;;1.60;1.50;;;24.10;99.90;;;;;;5033305;28;20217;-76
2023/07/30 08:25:37;;;;;;;2.10;1.67;;;23.80;99.90;;;;;;5033160;28;20205;-75
2023/07/30 08:28:05;;;;;;;3.70;1.63;;;23.30;99.90;;;;;;5033498;28;20636;-77
2023/07/30 08:30:33;;;;;;;2.23;1.80;;;22.90;99.90;;;;;;5033461;28;20251;-77
2023/07/30 08:33:03;;;;;;;4.00;1.83;;;22.60;99.90;;;;;;5032581;28;20735;-75
2023/07/30 08:35:31;;;;;;;1.70;1.57;;;22.60;99.90;;;;;;5033554;28;20209;-75
2023/07/30 08:37:59;;;;;;;1.93;1.73;;;22.90;99.90;;;;;;5033124;28;20274;-75
2023/07/30 08:40:27;;;;;;;2.77;1.77;;;22.90;99.90;;;;;;5047038;28;20274;-76
2023/07/30 08:42:55;;;;;;;2.00;1.60;;;23.40;99.90;;;;;;5050908;28;20204;-76
2023/07/30 08:45:23;;;;;;;1.70;1.60;;;24.70;99.90;;;;;;5032908;28;20224;-76
2023/07/30 08:47:51;;;;;;;3.83;1.90;;;26.20;99.90;;;;;;5032878;28;20212;-76
2023/07/30 08:50:21;;;;;;;3.22;2.40;;;27.60;99.60;;;;;;5032978;28;20209;-76
2023/07/30 08:52:50;;;;;;;1.95;1.60;;;28.90;94.90;;;;;;5048090;28;20239;-74
2023/07/30 08:55:19;;;;;;;1.80;1.70;;;29.80;92.10;;;;;;5052387;28;20666;-75
2023/07/30 08:57:48;;;;;;;2.40;1.50;;;30.60;90.80;;;;;;5051015;28;20716;-77
2023/07/30 09:00:18;;;;;;;2.67;1.80;;;30.70;88.30;;;;;;5049943;28;20649;-76
2023/07/30 09:02:49;;;;;;;1.65;1.55;;;29.80;86.00;;;;;;5052180;28;20269;-75
2023/07/30 09:05:17;;;;;;;1.65;1.52;;;28.60;91.20;;;;;;5052496;28;20192;-77
2023/07/30 09:07:47;;;;;;;3.38;1.73;;;28.50;91.40;;;;;;5052227;28;20265;-77
2023/07/30 09:10:15;;;;;;;1.77;1.67;;;28.50;92.60;;;;;;5036558;28;20236;-78
2023/07/30 09:12:43;;;;;;;2.00;1.60;;;29.20;92.00;;;;;;5042841;28;20200;-78
2023/07/30 09:15:16;;;;;;;1.70;1.60;;;30.20;89.70;;;;;;5052614;28;20231;-76
2023/07/30 09:17:44;;;;;;;2.30;1.60;;;31.20;85.60;;;;;;5051624;28;20224;-76
2023/07/30 09:20:13;;;;;;;3.25;1.80;;;31.60;82.60;;;;;;5033967;28;20239;-77
2023/07/30 09:22:41;;;;;;;1.65;1.55;;;32.30;72.80;;;;;;5031786;28;20238;-77
2023/07/30 09:25:11;;;;;;;3.00;1.65;;;32.10;67.30;;;;;;5032629;28;20224;-76
2023/07/30 09:27:39;;;;;;;1.80;1.67;;;31.50;63.10;;;;;;5032104;28;20232;-74
2023/07/30 09:30:08;;;;;;;1.75;1.55;;;29.80;72.00;;;;;;5032443;28;20266;-78
2023/07/30 09:32:37;;;;;;;1.67;1.50;;;29.20;78.10;;;;;;5032128;28;20236;-78
2023/07/30 09:35:07;;;;;;;2.45;1.58;;;29.60;78.20;;;;;;5032065;28;20216;-78
2023/07/30 09:37:38;;;;;;;1.90;1.60;;;30.00;76.80;;;;;;5032802;28;20247;-75
2023/07/30 09:40:08;;;;;;;1.80;1.70;;;30.40;76.40;;;;;;5031719;28;20260;-75
2023/07/30 09:42:39;;;;;;;1.90;1.80;;;31.40;75.10;;;;;;5035088;28;20208;-79
2023/07/30 09:45:09;;;;;;;3.08;1.73;;;31.90;68.70;;;;;;5051951;28;20207;-75
2023/07/30 09:47:38;;;;;;;3.53;1.90;;;30.60;70.30;;;;;;5052218;28;20236;-74
2023/07/30 09:50:07;;;;;;;3.35;1.77;;;29.50;73.40;;;;;;5050359;28;20204;-74
2023/07/30 09:52:36;;;;;;;2.00;1.83;;;28.80;77.80;;;;;;5031609;28;20690;-74
2023/07/30 09:55:08;;;;;;;2.10;1.90;;;28.10;82.10;;;;;;5031706;28;20236;-73
2023/07/30 09:57:38;;;;;;;1.70;1.60;;;28.20;87.70;;;;;;5039268;28;20674;-74
2023/07/30 10:00:08;;;;;;;1.55;1.45;;;29.30;79.60;;;;;;5051758;28;20216;-74
2023/07/30 10:02:41;;;;;;;1.75;1.65;;;29.40;79.60;;;;;;5041297;28;20231;-78
2023/07/30 10:05:12;;;;;;;2.05;1.83;;;29.90;77.00;;;;;;5031816;28;20648;-77
2023/07/30 10:07:48;;;;;;;2.13;1.90;;;30.90;71.80;;;;;;5040326;28;20243;-77
2023/07/30 10:10:16;;;;;;;1.60;1.50;;;31.70;72.70;;;;;;5048782;28;20657;-76
2023/07/30 10:12:46;;;;;;;2.35;1.77;;;31.90;68.70;;;;;;5031673;28;20279;-74
2023/07/30 10:15:14;;;;;;;1.73;1.63;;;32.10;65.70;;;;;;5048772;28;20244;-78
2023/07/30 10:17:42;;;;;;;3.25;1.70;;;31.70;66.40;;;;;;5051645;28;20251;-75
2023/07/30 10:20:23;;;;;;;2.60;1.80;;;31.10;62.00;;;;;;5051133;28;20204;-76
2023/07/30 10:22:55;;;;;;;2.22;1.52;;;30.10;70.30;;;;;;5047004;28;20284;-77
2023/07/30 10:25:28;;;;;;;2.50;1.50;;;28.90;73.10;;;;;;5029779;28;20578;-76
2023/07/30 10:27:59;;;;;;;2.13;1.77;;;28.40;79.60;;;;;;5031292;28;20612;-79
2023/07/30 10:30:32;;;;;;;2.10;1.90;;;27.50;80.20;;;;;;5049156;28;20643;-77
2023/07/30 10:33:03;;;;;;;2.17;1.80;;;27.10;78.30;;;;;;5053374;28;20228;-78
2023/07/30 10:35:39;;;;;;;1.88;1.70;;;27.20;73.80;;;;;;5043043;28;20303;-76
2023/07/30 10:38:17;;;;;;;2.22;1.90;;;27.00;75.80;;;;;;5048228;28;20728;-76
2023/07/30 10:41:02;;;;;;;4.07;2.57;;;26.70;80.00;;;;;;5047000;28;20200;-76
2023/07/30 10:43:35;;;;;;;1.70;1.60;;;26.20;79.10;;;;;;5050273;28;20580;-76
2023/07/30 10:46:03;;;;;;;3.47;2.07;;;25.90;81.00;;;;;;5051195;28;20209;-77
2023/07/30 10:48:36;;;;;;;1.97;1.77;;;26.00;86.40;;;;;;5034633;28;20217;-78
2023/07/30 10:51:06;;;;;;;1.83;1.70;;;26.10;86.10;;;;;;5034659;28;20208;-78
2023/07/30 10:53:35;;;;;;;2.50;2.13;;;26.20;87.10;;;;;;5034440;28;20290;-79
2023/07/30 10:56:04;;;;;;;2.30;1.90;;;25.90;88.70;;;;;;5034806;28;20212;-76
2023/07/30 10:58:35;;;;;;;2.33;1.80;;;25.50;90.10;;;;;;5034755;28;20659;-77
2023/07/30 11:01:04;;;;;;;1.93;1.67;;;25.20;87.40;;;;;;5034478;28;20209;-78
2023/07/30 11:03:33;;;;;;;2.00;1.80;;;24.90;87.00;;;;;;5043850;28;20349;-78
2023/07/30 11:06:02;;;;;;;1.97;1.80;;;24.50;90.20;;;;;;5054634;28;20199;-79
2023/07/30 11:08:34;;;;;;;2.00;1.80;;;24.50;91.90;;;;;;5055022;28;20224;-77
2023/07/30 11:11:02;;;;;;;1.70;1.53;;;25.50;92.60;;;;;;5054161;28;20212;-76
2023/07/30 11:13:35;;;;;;;1.97;1.70;;;26.30;87.90;;;;;;5054107;28;20753;-80
2023/07/30 11:16:06;;;;;;;1.60;1.50;;;27.40;85.60;;;;;;5054339;28;20622;-77
2023/07/30 11:18:34;;;;;;;1.97;1.30;;;28.10;77.10;;;;;;5040405;28;20213;-77
2023/07/30 11:21:06;;;;;;;2.10;1.40;;;28.50;76.00;;;;;;5034271;28;20683;-79
2023/07/30 11:23:35;;;;;;;1.23;1.20;;;28.40;74.10;;;;;;5034016;28;20263;-78
2023/07/30 11:26:05;;;;;;;3.40;1.70;;;28.10;76.20;;;;;;5034626;28;20347;-78
2023/07/30 11:28:34;;;;;;;2.77;1.80;;;28.00;75.20;;;;;;5034373;28;20212;-78
2023/07/30 11:31:07;;;;;;;2.20;1.73;;;27.60;75.10;;;;;;5051393;28;20674;-75
2023/07/30 11:33:37;;;;;;;1.90;1.43;;;26.70;77.80;;;;;;5053848;28;20307;-76
2023/07/30 11:36:09;;;;;;;2.27;1.50;;;26.50;78.90;;;;;;5054397;28;20576;-77
2023/07/30 11:38:39;;;;;;;1.63;1.40;;;26.50;75.60;;;;;;5052860;28;20286;-76
2023/07/30 11:41:09;;;;;;;1.63;1.40;;;26.70;77.80;;;;;;5053599;28;20208;-76
2023/07/30 11:43:38;;;;;;;3.50;1.30;;;27.10;79.40;;;;;;5054461;28;20189;-76
2023/07/30 11:46:13;;;;;;;1.43;1.33;;;27.20;83.90;;;;;;5044711;28;20678;-78
2023/07/30 11:48:42;;;;;;;2.13;1.30;;;27.30;81.80;;;;;;5033996;28;20263;-77
2023/07/30 11:51:21;;;;;;;3.87;1.27;;;27.40;79.70;;;;;;5033718;28;20300;-80
2023/07/30 11:53:51;;;;;;;3.53;1.40;;;26.40;84.40;;;;;;5034022;28;20320;-78
2023/07/30 11:56:22;;;;;;;1.70;1.60;;;25.80;86.50;;;;;;5034129;28;20251;-77
2023/07/30 11:58:52;;;;;;;1.97;1.50;;;25.40;90.60;;;;;;5033940;28;20474;-77
2023/07/30 12:01:21;;;;;;;1.93;1.50;;;25.20;90.60;;;;;;5033608;28;20209;-78
2023/07/30 12:03:49;;;;;;;1.67;1.57;;;25.40;90.60;;;;;;5033761;28;20205;-78
2023/07/30 12:06:17;;;;;;;1.67;1.53;;;25.20;89.80;;;;;;5033917;28;20216;-77
2023/07/30 12:08:45;;;;;;;2.07;1.60;;;25.30;90.10;;;;;;5033287;28;20422;-77
2023/07/30 12:11:13;;;;;;;1.67;1.57;;;25.60;89.80;;;;;;5033775;28;20304;-75
2023/07/30 12:13:45;;;;;;;1.80;1.60;;;25.50;86.00;;;;;;5033688;28;20225;-76
2023/07/30 12:16:15;;;;;;;1.67;1.50;;;26.00;82.30;;;;;;5033953;28;20262;-77
2023/07/30 12:18:48;;;;;;;2.33;1.33;;;25.70;83.40;;;;;;5033153;28;20205;-77
2023/07/30 12:21:16;;;;;;;3.47;1.70;;;25.30;85.20;;;;;;5033159;28;20248;-79
2023/07/30 12:23:44;;;;;;;3.27;1.67;;;25.00;87.20;;;;;;5032781;28;20291;-79
2023/07/30 12:26:12;;;;;;;2.17;1.70;;;25.30;87.70;;;;;;5033444;28;20213;-78
2023/07/30 12:28:40;;;;;;;1.50;1.30;;;25.10;85.50;;;;;;5043865;28;20570;-79
2023/07/30 12:31:08;;;;;;;3.50;1.57;;;25.10;86.60;;;;;;5050408;28;20702;-78
2023/07/30 12:33:37;;;;;;;1.70;1.50;;;25.40;87.20;;;;;;5052110;28;20305;-78
2023/07/30 12:36:06;;;;;;;2.63;1.83;;;25.40;88.00;;;;;;5055792;28;20262;-75
2023/07/30 12:38:34;;;;;;;1.80;1.70;;;25.70;86.90;;;;;;5062666;28;20219;-77
2023/07/30 12:41:02;;;;;;;2.63;1.47;;;26.00;86.00;;;;;;5055952;28;20673;-77
2023/07/30 12:43:31;;;;;;;3.53;1.70;;;26.00;88.10;;;;;;5059537;28;20199;-76
2023/07/30 12:45:59;;;;;;;4.10;1.90;;;26.20;91.20;;;;;;5051942;28;20666;-76
2023/07/30 12:48:27;;;;;;;1.70;1.60;;;26.50;87.80;;;;;;5045467;28;20580;-77
2023/07/30 12:50:55;;;;;;;1.70;1.60;;;26.30;86.10;;;;;;5049105;28;20690;-78
2023/07/30 12:53:26;;;;;;;1.80;1.70;;;26.20;89.90;;;;;;5049202;28;20217;-78
2023/07/30 12:55:54;;;;;;;1.57;1.47;;;26.10;88.60;;;;;;5051929;28;20212;-79